Garden Spring, Nevada Weather observations

Data are for 10 minute period ending at time listed.
 Day   Time    Ave.   Ave.  Ave.  Vector   Max.   Stn.    Total    Solar   Ave.  
  of    of     Air    Rel.  Wind   Wind    Wind   Baro.  Precip.   Rad.    Soil  
Year   Day     Temp.  Hum.  Speed  Dir.    Gust   Pres.                    Temp. 
2014   (PST)    F      %     mph   deg.    mph     mb.     in.     W/m2     F    
--------------------------------------------------------------------------------- 
 244   13:00   89.9    13    6.8   164     15.0   851.7    0.00     897    81.9  
 244   14:00   90.5    12    7.2   178     15.3   851.3    0.00     815    84.8  
 244   15:00   91.0    12    6.3   193     14.1   850.8    0.00     681    87.0  
 244   16:00   91.6    12    5.3   201     12.0   850.6    0.00     503    88.4  
 244   17:00   90.3    12    4.8   210     10.7   850.5    0.00     297    88.7  
 244   18:00   86.1    14    5.4   207      9.4   850.5    0.00      83    88.2  
 244   19:00   79.5    19    4.1   241      7.4   850.8    0.00       1    87.1  
 244   20:00   76.4    20    4.0   261      7.5   851.3    0.00       0    86.1  
 244   21:00   75.2    22    4.2   286      7.0   851.6    0.00       0    85.0  
 244   22:00   73.9    24    4.5   283      7.8   851.5    0.00       0    83.8  
 244   23:00   72.9    27    3.8   284      7.3   851.6    0.00       0    82.6  
 245    0:00   78.7    20    6.9   243     18.7   851.5    0.00       0    82.1  
 245    1:00   79.0    20    5.9   241     13.5   851.5    0.00       0    81.0  
 245    2:00   72.8    25    3.8   256      6.2   851.6    0.00       0    79.7  
 245    3:00   69.3    29    4.6   275      6.7   851.7    0.00       0    79.1  
 245    4:00   68.6    30    4.5   277      6.9   852.0    0.00       0    78.5  
 245    5:00   67.7    31    4.6   278      6.3   852.4    0.00       0    77.8  
 245    6:00   69.0    30    4.0   276      5.7   852.8    0.00      41    77.3  
 245    7:00   79.7    22    2.0   337      5.4   853.1    0.00     224    77.5  
 245    8:00   83.2    18    4.7   149     11.8   853.0    0.00     430    77.5  
 245    9:00   84.5    18    6.0   163     13.8   853.0    0.00     620    77.6  
 245   10:00   86.6    16    6.6   166     14.7   852.8    0.00     773    78.3  
 245   11:00   87.3    15    7.9   175     16.9   852.5    0.00     875    78.9  
 245   12:00   88.2    14    7.9   170     18.7   852.1    0.00     918    80.2  

Return to Garden Spring, Nevada graphs page.


Western Regional Climate Center,wrcc@dri.edu